Terminal Aerodrome Forecast
Issued by NWS Amarillo, TX

Home | Current Version | Previous Version | Text Only | Print | Product List | Glossary On
Versions: 1 2 3 4 5 6 7 8 9 10 11 12 13 14 15 16 17 18 19
692
FTUS44 KAMA 311728
TAFDHT
TAF
KDHT 311728Z 3118/0118 10011KT P6SM VCTS BKN030CB
     FM312100 08013KT 5SM -TSRA OVC040CB
     FM010400 08010KT P6SM OVC015 PROB30 0104/0110 -TSRA OVC020CB
     FM011500 10008KT P6SM OVC030=

USA.gov is the U.S. government's official web portal to all federal, state and local government web resources and services.